createdAt,value
2023-01-25T00:01:17.069Z,30.60
2023-01-25T00:03:44.927Z,32.00
2023-01-25T00:06:12.834Z,31.10
2023-01-25T00:08:40.963Z,30.20
2023-01-25T00:11:08.884Z,29.90
2023-01-25T00:13:36.840Z,29.60
2023-01-25T00:16:05.315Z,27.60
2023-01-25T00:18:33.446Z,27.00
2023-01-25T00:21:15.807Z,26.40
2023-01-25T00:23:43.977Z,24.80
2023-01-25T00:26:12.563Z,23.90
2023-01-25T00:28:40.744Z,21.80
2023-01-25T00:31:16.764Z,21.70
2023-01-25T00:33:52.336Z,23.40
2023-01-25T00:36:29.097Z,25.50
2023-01-25T00:38:57.794Z,25.80
2023-01-25T00:41:26.395Z,24.40
2023-01-25T00:43:55.100Z,23.90
2023-01-25T00:46:23.238Z,25.10
2023-01-25T00:48:54.736Z,24.90
2023-01-25T00:51:23.845Z,25.20
2023-01-25T00:53:52.494Z,22.40
2023-01-25T00:56:20.556Z,22.70
2023-01-25T00:58:48.632Z,22.40
2023-01-25T01:01:18.639Z,23.10
2023-01-25T01:03:46.595Z,23.10
2023-01-25T01:06:14.654Z,22.30
2023-01-25T01:08:42.733Z,20.70
2023-01-25T01:11:12.654Z,21.00
2023-01-25T01:13:40.848Z,13.10
2023-01-25T01:16:12.101Z,11.90
2023-01-25T01:18:45.805Z,15.40
2023-01-25T01:21:14.413Z,17.30
2023-01-25T01:23:42.432Z,18.00
2023-01-25T01:26:13.390Z,18.60
2023-01-25T01:28:42.237Z,18.30
2023-01-25T01:31:21.745Z,17.10
2023-01-25T01:34:00.912Z,15.80
2023-01-25T01:36:35.280Z,17.00
2023-01-25T01:39:03.611Z,15.10
2023-01-25T01:41:31.550Z,17.60
2023-01-25T01:43:59.923Z,17.10
2023-01-25T01:46:30.013Z,16.50
2023-01-25T01:49:16.670Z,17.30
2023-01-25T01:51:57.817Z,15.80
2023-01-25T01:54:34.930Z,13.90
2023-01-25T01:57:14.962Z,14.80
2023-01-25T01:59:51.005Z,15.00
2023-01-25T02:07:35.323Z,12.10
2023-01-25T02:10:07.023Z,11.90
2023-01-25T02:12:37.141Z,12.10
2023-01-25T02:15:07.097Z,11.80
2023-01-25T02:17:37.625Z,11.40
2023-01-25T02:20:08.494Z,10.80
2023-01-25T02:22:44.127Z,10.40
2023-01-25T02:25:14.288Z,10.10
2023-01-25T02:27:53.224Z,10.90
2023-01-25T02:30:21.415Z,9.50
2023-01-25T02:32:49.643Z,9.20
2023-01-25T02:35:22.493Z,8.30
2023-01-25T02:37:51.846Z,8.00
2023-01-25T02:40:20.390Z,7.90
2023-01-25T02:42:48.657Z,8.00
2023-01-25T02:45:19.665Z,8.40
2023-01-25T02:47:48.695Z,8.80
2023-01-25T02:50:17.299Z,8.00
2023-01-25T02:52:45.314Z,8.50
2023-01-25T02:55:13.434Z,8.40
2023-01-25T02:57:42.006Z,9.00
2023-01-25T03:00:10.970Z,8.70
2023-01-25T03:02:38.909Z,8.10
2023-01-25T03:05:07.538Z,8.20
2023-01-25T03:07:36.128Z,8.10
2023-01-25T03:10:05.551Z,8.60
2023-01-25T03:12:34.956Z,7.90
2023-01-25T03:15:03.906Z,8.00
2023-01-25T03:17:31.959Z,7.90
2023-01-25T03:19:59.772Z,8.70
2023-01-25T03:22:27.830Z,7.80
2023-01-25T03:24:57.338Z,8.10
2023-01-25T03:27:25.419Z,7.50
2023-01-25T03:30:03.977Z,7.70
2023-01-25T03:32:33.939Z,7.60
2023-01-25T03:37:34.745Z,6.40
2023-01-25T03:40:05.097Z,6.70
2023-01-25T03:42:33.687Z,7.10
2023-01-25T03:45:02.101Z,7.00
2023-01-25T03:47:30.097Z,6.00
2023-01-25T03:49:58.218Z,7.10
2023-01-25T03:52:42.133Z,6.80
2023-01-25T03:55:15.505Z,6.50
2023-01-25T03:57:43.734Z,6.20
2023-01-25T04:04:55.368Z,6.10
2023-01-25T04:07:23.945Z,7.40
2023-01-25T04:09:52.172Z,6.80
2023-01-25T04:12:20.253Z,7.30
2023-01-25T04:14:48.208Z,8.10
2023-01-25T04:17:22.715Z,8.00
2023-01-25T04:22:25.811Z,8.30
2023-01-25T04:24:55.358Z,8.00
2023-01-25T04:27:23.567Z,8.30
2023-01-25T04:34:37.898Z,8.40
2023-01-25T04:37:08.444Z,8.70
2023-01-25T04:39:43.482Z,9.60
2023-01-25T04:42:11.571Z,10.30
2023-01-25T04:44:39.789Z,9.60
2023-01-25T04:47:07.823Z,10.90
2023-01-25T04:49:35.913Z,9.70
2023-01-25T04:52:04.286Z,9.70
2023-01-25T04:54:32.591Z,9.30
2023-01-25T04:57:00.736Z,10.30
2023-01-25T04:59:29.031Z,10.40
2023-01-25T05:01:56.976Z,10.50
2023-01-25T05:04:25.267Z,11.10
2023-01-25T05:06:53.471Z,10.90
2023-01-25T05:09:21.721Z,11.50
2023-01-25T05:11:49.887Z,11.50
2023-01-25T05:14:26.218Z,11.80
2023-01-25T05:16:54.506Z,11.20
2023-01-25T05:19:23.307Z,10.40
2023-01-25T05:22:00.337Z,12.10
2023-01-25T05:24:34.103Z,11.40
2023-01-25T05:27:05.024Z,11.60
2023-01-25T05:29:53.562Z,11.80
2023-01-25T05:32:24.623Z,12.20
2023-01-25T05:34:52.869Z,13.80
2023-01-25T05:37:22.072Z,14.70
2023-01-25T05:39:56.194Z,13.80
2023-01-25T05:42:24.949Z,14.60
2023-01-25T05:44:54.014Z,14.70
2023-01-25T05:47:22.010Z,15.30
2023-01-25T05:49:49.997Z,15.00
2023-01-25T05:52:26.967Z,16.10
2023-01-25T05:54:55.170Z,16.80
2023-01-25T05:57:24.882Z,16.00
2023-01-25T05:59:52.853Z,16.60
2023-01-25T06:02:21.300Z,16.70
2023-01-25T06:04:49.364Z,16.90
2023-01-25T06:07:17.357Z,17.10
2023-01-25T06:09:45.628Z,15.00
2023-01-25T06:12:13.685Z,18.40
2023-01-25T06:14:42.480Z,18.80
2023-01-25T06:17:11.319Z,18.60
2023-01-25T06:20:12.446Z,19.00
2023-01-25T06:22:59.308Z,19.40
2023-01-25T06:25:27.812Z,19.40
2023-01-25T06:27:55.900Z,21.30
2023-01-25T06:30:24.009Z,24.10
2023-01-25T06:32:52.092Z,23.50
2023-01-25T06:35:20.105Z,23.90
2023-01-25T06:37:47.983Z,23.60
2023-01-25T06:40:16.435Z,23.20
2023-01-25T06:42:45.384Z,23.50
2023-01-25T06:45:13.598Z,23.10
2023-01-25T06:47:41.828Z,23.90
2023-01-25T06:50:10.807Z,23.50
2023-01-25T06:52:38.861Z,21.80
2023-01-25T06:55:10.365Z,23.10
2023-01-25T06:57:38.447Z,22.30
2023-01-25T07:00:06.966Z,22.40
2023-01-25T07:02:39.017Z,22.00
2023-01-25T07:07:35.613Z,22.90
2023-01-25T07:10:04.243Z,23.30
2023-01-25T07:12:32.399Z,25.40
2023-01-25T07:15:00.377Z,24.50
2023-01-25T07:17:28.483Z,23.60
2023-01-25T07:19:56.377Z,23.20
2023-01-25T07:22:24.261Z,24.30
2023-01-25T07:24:53.906Z,24.10
2023-01-25T07:27:21.815Z,25.00
2023-01-25T07:29:49.720Z,23.20
2023-01-25T07:32:17.564Z,23.90
2023-01-25T07:34:46.328Z,21.80
2023-01-25T07:37:14.400Z,24.20
2023-01-25T07:39:48.190Z,26.20
2023-01-25T07:42:16.433Z,24.40
2023-01-25T07:44:52.687Z,24.60
2023-01-25T07:47:21.244Z,25.60
2023-01-25T07:49:49.287Z,25.20
2023-01-25T07:52:17.245Z,26.40
2023-01-25T07:54:48.390Z,27.20
2023-01-25T07:57:21.549Z,26.80
2023-01-25T07:59:52.389Z,26.80
2023-01-25T08:02:20.766Z,26.30
2023-01-25T08:04:48.946Z,25.10
2023-01-25T08:07:17.011Z,26.90
2023-01-25T08:09:44.943Z,27.00
2023-01-25T08:12:13.049Z,26.40
2023-01-25T08:14:41.014Z,26.50
2023-01-25T08:17:08.904Z,26.90
2023-01-25T08:19:37.106Z,26.70
2023-01-25T08:22:08.091Z,28.60
2023-01-25T08:24:36.070Z,28.90
2023-01-25T08:27:05.126Z,28.40
2023-01-25T08:29:32.992Z,28.10
2023-01-25T08:32:04.475Z,25.10
2023-01-25T08:34:32.499Z,26.70
2023-01-25T08:37:00.867Z,27.70
2023-01-25T08:39:28.876Z,26.00
2023-01-25T08:41:57.001Z,26.60
2023-01-25T08:44:26.051Z,26.10
2023-01-25T08:46:53.953Z,27.10
2023-01-25T08:49:21.921Z,27.00
2023-01-25T08:51:50.657Z,21.70
2023-01-25T08:54:19.014Z,28.30
2023-01-25T08:56:47.508Z,29.60
2023-01-25T08:59:15.427Z,27.10
2023-01-25T09:01:43.411Z,22.20
2023-01-25T09:04:12.412Z,25.10
2023-01-25T09:06:40.555Z,27.80
2023-01-25T09:09:08.737Z,27.20
2023-01-25T09:11:38.177Z,22.20
2023-01-25T09:14:06.422Z,21.80
2023-01-25T09:16:35.319Z,21.50
2023-01-25T09:19:05.382Z,23.80
2023-01-25T09:21:33.998Z,26.40
2023-01-25T09:24:09.289Z,26.90
2023-01-25T09:26:42.912Z,28.80
2023-01-25T09:29:12.239Z,28.70
2023-01-25T09:31:41.083Z,27.70
2023-01-25T09:34:41.652Z,28.30
2023-01-25T09:37:09.563Z,28.50
2023-01-25T09:39:37.513Z,27.90
2023-01-25T09:42:15.580Z,27.20
2023-01-25T09:45:00.900Z,27.20
2023-01-25T09:47:46.951Z,25.00
2023-01-25T09:50:27.785Z,25.20
2023-01-25T09:53:28.531Z,25.50
2023-01-25T09:56:01.373Z,26.50
2023-01-25T09:58:43.835Z,26.60
2023-01-25T10:01:39.093Z,26.10
2023-01-25T10:04:26.957Z,25.90
2023-01-25T10:07:02.030Z,27.20
2023-01-25T10:09:42.762Z,26.60
2023-01-25T10:12:22.665Z,27.20
2023-01-25T10:14:52.100Z,28.60
2023-01-25T10:17:40.546Z,30.30
2023-01-25T10:20:20.074Z,29.70
2023-01-25T10:22:53.282Z,29.70
2023-01-25T10:26:01.865Z,26.20
2023-01-25T10:29:02.852Z,22.30
2023-01-25T10:31:36.688Z,21.30
2023-01-25T10:34:24.353Z,22.20
2023-01-25T10:36:56.294Z,24.30
2023-01-25T10:39:24.375Z,23.50
2023-01-25T10:42:03.243Z,23.30
2023-01-25T10:44:31.396Z,22.40
2023-01-25T10:47:23.601Z,22.10
2023-01-25T10:49:56.891Z,24.30
2023-01-25T10:52:34.250Z,25.60
2023-01-25T10:55:14.311Z,25.80
2023-01-25T10:57:49.157Z,25.00
2023-01-25T11:04:36.979Z,26.30
2023-01-25T11:07:05.946Z,27.80
2023-01-25T11:09:39.234Z,28.10
2023-01-25T11:12:19.354Z,28.40
2023-01-25T11:14:49.966Z,25.70
2023-01-25T11:17:27.940Z,24.60
2023-01-25T11:20:18.556Z,25.00
2023-01-25T11:22:57.540Z,27.80
2023-01-25T11:25:44.424Z,27.60
2023-01-25T11:28:24.043Z,27.90
2023-01-25T11:30:53.391Z,25.00
2023-01-25T11:33:22.368Z,26.10
2023-01-25T11:36:30.984Z,28.10
2023-01-25T11:39:29.677Z,27.00
2023-01-25T11:42:31.576Z,28.20
2023-01-25T11:45:08.344Z,26.10
2023-01-25T11:47:57.456Z,24.60
2023-01-25T11:50:39.097Z,27.90
2023-01-25T11:53:26.006Z,28.40
2023-01-25T11:56:02.946Z,27.70
2023-01-25T11:59:12.080Z,27.20
2023-01-25T12:01:56.187Z,28.30
2023-01-25T12:04:49.834Z,30.00
2023-01-25T12:07:43.228Z,29.50
2023-01-25T12:10:26.942Z,30.50
2023-01-25T12:13:03.873Z,30.20
2023-01-25T12:16:09.934Z,31.20
2023-01-25T12:19:05.526Z,29.50
2023-01-25T12:21:42.419Z,31.30
2023-01-25T12:24:37.642Z,29.00
2023-01-25T12:27:25.976Z,32.30
2023-01-25T12:29:59.026Z,31.00
2023-01-25T12:32:50.648Z,29.70
2023-01-25T12:35:21.557Z,31.10
2023-01-25T12:37:53.050Z,28.20
2023-01-25T12:40:32.455Z,29.50
2023-01-25T12:43:01.688Z,29.30
2023-01-25T12:45:34.403Z,29.90
2023-01-25T12:48:30.204Z,30.10
2023-01-25T12:50:59.879Z,30.60
2023-01-25T12:53:36.187Z,30.60
2023-01-25T12:56:09.358Z,29.40
2023-01-25T12:59:30.640Z,29.60
2023-01-25T13:02:10.918Z,29.80
2023-01-25T13:05:00.183Z,31.30
2023-01-25T13:07:37.907Z,28.70
2023-01-25T13:10:12.458Z,28.40
2023-01-25T13:13:05.291Z,30.60
2023-01-25T13:15:45.016Z,31.90
2023-01-25T13:18:28.118Z,29.70
2023-01-25T13:20:58.288Z,28.80
2023-01-25T13:23:47.211Z,31.00
2023-01-25T13:26:20.969Z,28.80
2023-01-25T13:28:51.632Z,30.80
2023-01-25T13:31:51.089Z,29.20
2023-01-25T13:34:42.409Z,27.80
2023-01-25T13:37:19.187Z,28.60
2023-01-25T13:39:48.281Z,27.70
2023-01-25T13:42:28.115Z,28.10
2023-01-25T13:45:00.016Z,27.70
2023-01-25T13:47:39.638Z,29.30
2023-01-25T13:50:27.021Z,29.10
2023-01-25T13:53:00.677Z,27.10
2023-01-25T13:55:30.063Z,28.10
2023-01-25T13:58:34.359Z,27.60
2023-01-25T14:01:08.365Z,28.20
2023-01-25T14:03:50.366Z,28.10
2023-01-25T14:08:50.476Z,27.00
2023-01-25T14:11:22.972Z,27.90
2023-01-25T14:14:17.065Z,27.00
2023-01-25T14:16:45.290Z,28.00
2023-01-25T14:19:29.818Z,26.10
2023-01-25T14:22:27.118Z,26.70
2023-01-25T14:25:11.968Z,25.60
2023-01-25T14:27:58.985Z,27.10
2023-01-25T14:30:30.623Z,28.20
2023-01-25T14:33:04.689Z,26.20
2023-01-25T14:38:27.825Z,27.40
2023-01-25T14:41:03.661Z,26.60
2023-01-25T14:43:32.547Z,27.50
2023-01-25T14:46:00.510Z,26.20
2023-01-25T14:48:42.400Z,25.50
2023-01-25T14:51:18.470Z,26.20
2023-01-25T14:53:50.875Z,25.60
2023-01-25T14:56:26.158Z,27.00
2023-01-25T14:58:59.858Z,27.90
2023-01-25T15:01:38.192Z,26.80
2023-01-25T15:04:12.957Z,26.10
2023-01-25T15:06:52.493Z,27.20
2023-01-25T15:09:43.234Z,28.50
2023-01-25T15:12:17.268Z,25.90
2023-01-25T15:14:49.716Z,25.50
2023-01-25T15:17:44.469Z,27.90
2023-01-25T15:20:40.617Z,27.30
2023-01-25T15:23:25.834Z,29.30
2023-01-25T15:25:59.388Z,28.40
2023-01-25T15:28:30.384Z,27.40
2023-01-25T15:30:59.478Z,30.40
2023-01-25T15:33:29.946Z,28.40
2023-01-25T15:35:58.840Z,29.80
2023-01-25T15:38:26.670Z,30.50
2023-01-25T15:41:00.872Z,29.00
2023-01-25T15:43:28.822Z,28.10
2023-01-25T15:45:57.707Z,29.00
2023-01-25T15:48:42.611Z,28.30
2023-01-25T15:51:12.632Z,26.40
2023-01-25T15:53:40.745Z,28.40
2023-01-25T15:56:15.827Z,28.20
2023-01-25T15:58:47.671Z,27.70
2023-01-25T16:01:15.445Z,27.00
2023-01-25T16:03:43.453Z,27.00
2023-01-25T16:06:34.702Z,27.90
2023-01-25T16:09:16.454Z,27.70
2023-01-25T16:11:45.448Z,28.80
2023-01-25T16:14:13.516Z,29.00
2023-01-25T16:16:47.707Z,28.90
2023-01-25T16:19:22.882Z,29.30
2023-01-25T16:21:51.421Z,28.70
2023-01-25T16:24:19.423Z,29.00
2023-01-25T16:26:53.481Z,28.10
2023-01-25T16:29:23.115Z,26.60
2023-01-25T16:31:52.389Z,27.20
2023-01-25T16:34:21.103Z,25.70
2023-01-25T16:36:53.140Z,25.20
2023-01-25T16:41:51.004Z,23.80
2023-01-25T16:44:19.369Z,25.50
2023-01-25T16:46:51.196Z,25.90
2023-01-25T16:49:18.874Z,26.20
2023-01-25T16:51:48.973Z,25.70
2023-01-25T16:54:16.814Z,25.00
2023-01-25T16:56:44.650Z,22.70
2023-01-25T16:59:12.591Z,23.40
2023-01-25T17:01:42.523Z,23.60
2023-01-25T17:04:10.825Z,23.80
2023-01-25T17:06:43.019Z,22.60
2023-01-25T17:09:23.049Z,24.90
2023-01-25T17:11:52.868Z,26.30
2023-01-25T17:14:21.612Z,26.20
2023-01-25T17:16:51.853Z,26.40
2023-01-25T17:19:26.240Z,24.30
2023-01-25T17:21:54.210Z,26.40
2023-01-25T17:24:22.273Z,25.20
2023-01-25T17:26:51.472Z,26.00
2023-01-25T17:29:19.430Z,24.40
2023-01-25T17:31:48.405Z,25.00
2023-01-25T17:34:18.224Z,23.40
2023-01-25T17:36:46.636Z,24.60
2023-01-25T17:39:16.647Z,26.20
2023-01-25T17:41:46.030Z,23.90
2023-01-25T17:44:17.746Z,25.40
2023-01-25T17:46:45.637Z,26.00
2023-01-25T17:49:16.970Z,26.10
2023-01-25T17:51:45.358Z,19.70
2023-01-25T17:54:13.398Z,26.20
2023-01-25T17:56:41.366Z,26.00
2023-01-25T17:59:11.338Z,25.80
2023-01-25T18:01:39.971Z,24.50
2023-01-25T18:04:09.241Z,24.30
2023-01-25T18:06:37.298Z,25.70
2023-01-25T18:09:08.624Z,24.70
2023-01-25T18:11:38.266Z,25.20
2023-01-25T18:14:09.435Z,23.80
2023-01-25T18:16:39.613Z,26.20
2023-01-25T18:19:08.763Z,25.20
2023-01-25T18:21:37.515Z,25.20
2023-01-25T18:24:22.759Z,25.30
2023-01-25T18:26:52.031Z,28.00
2023-01-25T18:29:49.163Z,26.30
2023-01-25T18:32:17.164Z,26.00
2023-01-25T18:34:46.897Z,27.80
2023-01-25T18:37:18.678Z,27.40
2023-01-25T18:39:48.501Z,28.70
2023-01-25T18:42:16.491Z,28.60
2023-01-25T18:44:48.406Z,29.30
2023-01-25T18:47:21.357Z,28.90
2023-01-25T18:49:50.926Z,28.80
2023-01-25T18:52:21.943Z,29.10
2023-01-25T18:54:49.882Z,28.20
2023-01-25T18:57:18.233Z,29.00
2023-01-25T18:59:46.263Z,30.10
2023-01-25T19:04:34.877Z,30.40
2023-01-25T19:07:03.027Z,32.50
2023-01-25T19:09:31.340Z,30.90
2023-01-25T19:11:59.453Z,30.00
2023-01-25T19:14:27.524Z,30.50
2023-01-25T19:16:55.681Z,29.90
2023-01-25T19:19:23.872Z,30.50
2023-01-25T19:21:51.981Z,31.50
2023-01-25T19:24:20.872Z,30.80
2023-01-25T19:26:48.923Z,31.20
2023-01-25T19:29:17.100Z,32.00
2023-01-25T19:31:45.090Z,30.40
2023-01-25T19:34:13.345Z,33.00
2023-01-25T19:36:49.569Z,32.80
2023-01-25T19:39:18.263Z,33.00
2023-01-25T19:41:46.301Z,34.20
2023-01-25T19:44:15.362Z,34.00
2023-01-25T19:46:43.605Z,35.30
2023-01-25T19:49:13.304Z,33.80
2023-01-25T19:51:45.482Z,33.70
2023-01-25T19:54:16.793Z,33.70
2023-01-25T19:56:47.059Z,33.50
2023-01-25T19:59:25.007Z,34.20
2023-01-25T20:01:53.945Z,33.80
2023-01-25T20:04:23.733Z,33.80
2023-01-25T20:06:52.739Z,42.20
2023-01-25T20:09:25.087Z,35.30
2023-01-25T20:14:23.003Z,34.50
2023-01-25T20:16:53.182Z,36.10
2023-01-25T20:19:21.431Z,35.30
2023-01-25T20:21:49.545Z,34.30
2023-01-25T20:24:17.969Z,33.70
2023-01-25T20:26:46.316Z,33.30
2023-01-25T20:29:14.324Z,35.30
2023-01-25T20:31:46.773Z,35.20
2023-01-25T20:34:17.513Z,42.60
2023-01-25T20:36:46.038Z,42.90
2023-01-25T20:39:16.111Z,40.70
2023-01-25T20:41:44.259Z,33.60
2023-01-25T20:44:15.284Z,32.60
2023-01-25T20:46:44.038Z,34.00
2023-01-25T20:49:17.967Z,36.80
2023-01-25T20:51:46.794Z,33.50
2023-01-25T20:54:15.754Z,33.20
2023-01-25T20:56:47.835Z,34.90
2023-01-25T20:59:17.813Z,33.60
2023-01-25T21:01:46.710Z,35.10
2023-01-25T21:04:14.981Z,40.10
2023-01-25T21:06:43.052Z,42.10
2023-01-25T21:09:12.278Z,37.40
2023-01-25T21:11:40.179Z,35.90
2023-01-25T21:14:08.161Z,32.60
2023-01-25T21:16:36.059Z,35.20
2023-01-25T21:19:06.150Z,32.70
2023-01-25T21:21:34.984Z,34.50
2023-01-25T21:24:05.467Z,31.20
2023-01-25T21:26:35.219Z,34.00
2023-01-25T21:29:04.393Z,33.00
2023-01-25T21:31:35.110Z,34.10
2023-01-25T21:34:04.755Z,33.90
2023-01-25T21:36:33.183Z,32.70
2023-01-25T21:39:01.440Z,35.80
2023-01-25T21:41:33.843Z,34.70
2023-01-25T21:44:21.460Z,33.60
2023-01-25T21:47:16.259Z,32.20
2023-01-25T21:49:56.006Z,33.10
2023-01-25T21:52:23.932Z,31.10
2023-01-25T21:54:51.880Z,32.30
2023-01-25T21:57:20.608Z,31.20
2023-01-25T21:59:49.002Z,33.00
2023-01-25T22:02:17.418Z,35.20
2023-01-25T22:04:54.882Z,36.40
2023-01-25T22:07:22.870Z,40.20
2023-01-25T22:09:50.923Z,34.20
2023-01-25T22:12:19.041Z,33.00
2023-01-25T22:14:47.367Z,35.50
2023-01-25T22:17:15.453Z,35.60
2023-01-25T22:19:43.729Z,36.20
2023-01-25T22:22:11.618Z,45.10
2023-01-25T22:24:39.642Z,47.50
2023-01-25T22:27:26.324Z,40.20
2023-01-25T22:29:54.476Z,38.00
2023-01-25T22:32:22.463Z,36.20
2023-01-25T22:34:50.500Z,37.90
2023-01-25T22:37:18.491Z,37.90
2023-01-25T22:39:47.076Z,37.00
2023-01-25T22:42:15.119Z,38.50
2023-01-25T22:44:43.177Z,36.50
2023-01-25T22:47:11.212Z,36.90
2023-01-25T22:49:39.110Z,36.20
2023-01-25T22:52:07.067Z,36.90
2023-01-25T22:54:35.560Z,36.60
2023-01-25T22:57:03.502Z,38.10
2023-01-25T22:59:31.506Z,39.20
2023-01-25T23:01:59.414Z,38.50
2023-01-25T23:04:27.549Z,38.30
2023-01-25T23:07:02.873Z,38.10
2023-01-25T23:09:31.064Z,39.90
2023-01-25T23:11:59.327Z,38.50
2023-01-25T23:14:45.826Z,38.60
2023-01-25T23:17:32.534Z,37.50
2023-01-25T23:20:00.595Z,38.20
2023-01-25T23:22:28.669Z,36.90
2023-01-25T23:24:56.738Z,36.40
2023-01-25T23:27:24.837Z,36.10
2023-01-25T23:29:53.236Z,38.70
2023-01-25T23:32:21.693Z,38.80
2023-01-25T23:34:53.383Z,37.40
2023-01-25T23:37:22.138Z,39.50
2023-01-25T23:39:50.586Z,37.40
2023-01-25T23:42:19.129Z,38.70
2023-01-25T23:44:47.247Z,39.50
2023-01-25T23:47:15.549Z,40.50
2023-01-25T23:49:43.632Z,41.90
2023-01-25T23:52:11.574Z,40.70
2023-01-25T23:54:39.763Z,50.90
2023-01-25T23:57:07.823Z,40.60
2023-01-25T23:59:35.690Z,40.50
